sensor_id;sensor_type;location;lat;lon;timestamp;P1;durP1;ratioP1;P2;durP2;ratioP2
20185;SDS011;10252;48.792;8.582;2022-07-23T00:01:06;11.82;;;10.65;;
20185;SDS011;10252;48.792;8.582;2022-07-23T00:06:07;10.88;;;9.77;;
20185;SDS011;10252;48.792;8.582;2022-07-23T00:11:08;11.32;;;10.13;;
20185;SDS011;10252;48.792;8.582;2022-07-23T00:16:09;11.90;;;10.70;;
20185;SDS011;10252;48.792;8.582;2022-07-23T00:21:10;11.43;;;10.30;;
20185;SDS011;10252;48.792;8.582;2022-07-23T00:26:11;11.90;;;10.80;;
20185;SDS011;10252;48.792;8.582;2022-07-23T00:31:12;11.88;;;10.55;;
20185;SDS011;10252;48.792;8.582;2022-07-23T00:36:13;10.85;;;9.90;;
20185;SDS011;10252;48.792;8.582;2022-07-23T00:41:14;11.48;;;10.48;;
20185;SDS011;10252;48.792;8.582;2022-07-23T00:46:22;11.48;;;10.35;;
20185;SDS011;10252;48.792;8.582;2022-07-23T00:51:25;10.23;;;9.32;;
20185;SDS011;10252;48.792;8.582;2022-07-23T00:56:26;10.45;;;9.45;;
20185;SDS011;10252;48.792;8.582;2022-07-23T01:01:27;12.38;;;11.07;;
20185;SDS011;10252;48.792;8.582;2022-07-23T01:06:28;12.07;;;10.88;;
20185;SDS011;10252;48.792;8.582;2022-07-23T01:11:30;10.93;;;9.82;;
20185;SDS011;10252;48.792;8.582;2022-07-23T01:16:32;11.43;;;10.32;;
20185;SDS011;10252;48.792;8.582;2022-07-23T01:21:35;12.25;;;11.07;;
20185;SDS011;10252;48.792;8.582;2022-07-23T01:26:36;11.00;;;9.88;;
20185;SDS011;10252;48.792;8.582;2022-07-23T01:31:38;10.93;;;9.80;;
20185;SDS011;10252;48.792;8.582;2022-07-23T01:36:40;10.13;;;9.13;;
20185;SDS011;10252;48.792;8.582;2022-07-23T01:41:43;11.07;;;9.63;;
20185;SDS011;10252;48.792;8.582;2022-07-23T01:46:44;9.73;;;8.45;;
20185;SDS011;10252;48.792;8.582;2022-07-23T01:51:45;8.98;;;8.02;;
20185;SDS011;10252;48.792;8.582;2022-07-23T01:57:08;7.97;;;7.15;;
20185;SDS011;10252;48.792;8.582;2022-07-23T02:02:09;8.52;;;7.07;;
20185;SDS011;10252;48.792;8.582;2022-07-23T02:07:11;8.73;;;6.68;;
20185;SDS011;10252;48.792;8.582;2022-07-23T02:12:13;7.53;;;6.72;;
20185;SDS011;10252;48.792;8.582;2022-07-23T02:17:14;7.10;;;5.95;;
20185;SDS011;10252;48.792;8.582;2022-07-23T02:22:15;7.45;;;6.65;;
20185;SDS011;10252;48.792;8.582;2022-07-23T02:27:16;6.82;;;5.93;;
20185;SDS011;10252;48.792;8.582;2022-07-23T02:32:18;6.57;;;5.88;;
20185;SDS011;10252;48.792;8.582;2022-07-23T02:37:21;8.00;;;6.70;;
20185;SDS011;10252;48.792;8.582;2022-07-23T02:42:22;8.93;;;6.05;;
20185;SDS011;10252;48.792;8.582;2022-07-23T02:47:23;6.82;;;6.10;;
20185;SDS011;10252;48.792;8.582;2022-07-23T02:52:25;6.38;;;5.88;;
20185;SDS011;10252;48.792;8.582;2022-07-23T02:57:26;6.47;;;5.53;;
20185;SDS011;10252;48.792;8.582;2022-07-23T03:02:27;6.93;;;6.28;;
20185;SDS011;10252;48.792;8.582;2022-07-23T03:07:28;6.75;;;6.03;;
20185;SDS011;10252;48.792;8.582;2022-07-23T03:12:29;7.43;;;6.72;;
20185;SDS011;10252;48.792;8.582;2022-07-23T03:17:30;6.78;;;6.07;;
20185;SDS011;10252;48.792;8.582;2022-07-23T03:22:31;6.90;;;6.30;;
20185;SDS011;10252;48.792;8.582;2022-07-23T03:27:32;6.30;;;5.70;;
20185;SDS011;10252;48.792;8.582;2022-07-23T03:32:33;6.53;;;5.93;;
20185;SDS011;10252;48.792;8.582;2022-07-23T03:37:35;7.00;;;6.30;;
20185;SDS011;10252;48.792;8.582;2022-07-23T03:42:36;6.63;;;5.70;;
20185;SDS011;10252;48.792;8.582;2022-07-23T03:47:39;8.27;;;7.03;;
20185;SDS011;10252;48.792;8.582;2022-07-23T03:52:40;8.75;;;7.25;;
20185;SDS011;10252;48.792;8.582;2022-07-23T03:57:42;6.45;;;5.93;;
20185;SDS011;10252;48.792;8.582;2022-07-23T04:02:43;7.25;;;6.00;;
20185;SDS011;10252;48.792;8.582;2022-07-23T04:07:46;7.28;;;6.53;;
20185;SDS011;10252;48.792;8.582;2022-07-23T04:12:47;7.68;;;6.40;;
20185;SDS011;10252;48.792;8.582;2022-07-23T04:17:48;7.40;;;6.70;;
20185;SDS011;10252;48.792;8.582;2022-07-23T04:22:52;8.40;;;6.30;;
20185;SDS011;10252;48.792;8.582;2022-07-23T04:27:54;6.78;;;6.10;;
20185;SDS011;10252;48.792;8.582;2022-07-23T04:32:55;7.55;;;6.85;;
20185;SDS011;10252;48.792;8.582;2022-07-23T04:38:00;8.02;;;7.25;;
20185;SDS011;10252;48.792;8.582;2022-07-23T04:43:02;7.53;;;6.78;;
20185;SDS011;10252;48.792;8.582;2022-07-23T04:48:07;7.18;;;6.20;;
20185;SDS011;10252;48.792;8.582;2022-07-23T04:53:08;7.63;;;6.70;;
20185;SDS011;10252;48.792;8.582;2022-07-23T04:58:10;8.05;;;6.47;;
20185;SDS011;10252;48.792;8.582;2022-07-23T05:03:11;7.07;;;6.38;;
20185;SDS011;10252;48.792;8.582;2022-07-23T05:08:12;7.53;;;6.55;;
20185;SDS011;10252;48.792;8.582;2022-07-23T05:13:15;9.75;;;7.00;;
20185;SDS011;10252;48.792;8.582;2022-07-23T05:18:16;8.45;;;7.35;;
20185;SDS011;10252;48.792;8.582;2022-07-23T05:23:18;8.32;;;7.07;;
20185;SDS011;10252;48.792;8.582;2022-07-23T05:28:21;6.75;;;6.15;;
20185;SDS011;10252;48.792;8.582;2022-07-23T05:33:22;8.43;;;7.63;;
20185;SDS011;10252;48.792;8.582;2022-07-23T05:38:24;10.85;;;7.57;;
20185;SDS011;10252;48.792;8.582;2022-07-23T05:43:26;7.85;;;6.78;;
20185;SDS011;10252;48.792;8.582;2022-07-23T05:48:28;7.25;;;6.57;;
20185;SDS011;10252;48.792;8.582;2022-07-23T05:53:37;7.45;;;6.68;;
20185;SDS011;10252;48.792;8.582;2022-07-23T05:58:49;8.40;;;6.72;;
20185;SDS011;10252;48.792;8.582;2022-07-23T06:03:53;10.82;;;7.22;;
20185;SDS011;10252;48.792;8.582;2022-07-23T06:08:55;7.55;;;6.65;;
20185;SDS011;10252;48.792;8.582;2022-07-23T06:13:56;13.13;;;7.80;;
20185;SDS011;10252;48.792;8.582;2022-07-23T06:19:07;7.05;;;6.35;;
20185;SDS011;10252;48.792;8.582;2022-07-23T06:24:09;9.00;;;6.65;;
20185;SDS011;10252;48.792;8.582;2022-07-23T06:29:10;10.65;;;7.53;;
20185;SDS011;10252;48.792;8.582;2022-07-23T06:34:11;8.25;;;7.40;;
20185;SDS011;10252;48.792;8.582;2022-07-23T06:39:12;9.15;;;8.25;;
20185;SDS011;10252;48.792;8.582;2022-07-23T06:44:17;12.18;;;9.15;;
20185;SDS011;10252;48.792;8.582;2022-07-23T06:49:21;10.57;;;8.30;;
20185;SDS011;10252;48.792;8.582;2022-07-23T06:54:23;8.25;;;7.45;;
20185;SDS011;10252;48.792;8.582;2022-07-23T06:59:24;9.43;;;8.48;;
20185;SDS011;10252;48.792;8.582;2022-07-23T07:04:26;10.90;;;8.02;;
20185;SDS011;10252;48.792;8.582;2022-07-23T07:09:27;8.90;;;7.03;;
20185;SDS011;10252;48.792;8.582;2022-07-23T07:14:28;9.35;;;8.45;;
20185;SDS011;10252;48.792;8.582;2022-07-23T07:19:29;10.02;;;9.02;;
20185;SDS011;10252;48.792;8.582;2022-07-23T07:24:30;9.77;;;8.80;;
20185;SDS011;10252;48.792;8.582;2022-07-23T07:29:31;9.05;;;8.15;;
20185;SDS011;10252;48.792;8.582;2022-07-23T07:34:32;10.32;;;9.25;;
20185;SDS011;10252;48.792;8.582;2022-07-23T07:39:34;12.25;;;9.00;;
20185;SDS011;10252;48.792;8.582;2022-07-23T07:44:35;9.32;;;8.40;;
20185;SDS011;10252;48.792;8.582;2022-07-23T07:49:36;9.70;;;8.52;;
20185;SDS011;10252;48.792;8.582;2022-07-23T07:54:37;12.38;;;8.32;;
20185;SDS011;10252;48.792;8.582;2022-07-23T07:59:38;9.52;;;8.63;;
20185;SDS011;10252;48.792;8.582;2022-07-23T08:04:39;9.05;;;7.60;;
20185;SDS011;10252;48.792;8.582;2022-07-23T08:09:40;8.60;;;7.85;;
20185;SDS011;10252;48.792;8.582;2022-07-23T08:14:41;10.43;;;9.00;;
20185;SDS011;10252;48.792;8.582;2022-07-23T08:19:42;11.02;;;8.93;;
20185;SDS011;10252;48.792;8.582;2022-07-23T08:24:43;9.48;;;8.40;;
20185;SDS011;10252;48.792;8.582;2022-07-23T08:29:45;8.88;;;8.02;;
20185;SDS011;10252;48.792;8.582;2022-07-23T08:34:46;9.75;;;7.90;;
20185;SDS011;10252;48.792;8.582;2022-07-23T08:39:47;7.90;;;7.10;;
20185;SDS011;10252;48.792;8.582;2022-07-23T08:44:48;8.35;;;7.55;;
20185;SDS011;10252;48.792;8.582;2022-07-23T08:49:49;7.35;;;6.65;;
20185;SDS011;10252;48.792;8.582;2022-07-23T08:54:51;9.27;;;8.32;;
20185;SDS011;10252;48.792;8.582;2022-07-23T08:59:53;8.02;;;7.22;;
20185;SDS011;10252;48.792;8.582;2022-07-23T09:04:54;8.23;;;7.53;;
20185;SDS011;10252;48.792;8.582;2022-07-23T09:10:13;7.95;;;7.25;;
20185;SDS011;10252;48.792;8.582;2022-07-23T09:15:14;7.65;;;6.95;;
20185;SDS011;10252;48.792;8.582;2022-07-23T09:20:16;7.60;;;6.90;;
20185;SDS011;10252;48.792;8.582;2022-07-23T09:25:18;7.45;;;6.85;;
20185;SDS011;10252;48.792;8.582;2022-07-23T09:30:20;8.50;;;7.68;;
20185;SDS011;10252;48.792;8.582;2022-07-23T09:35:21;7.70;;;7.00;;
20185;SDS011;10252;48.792;8.582;2022-07-23T09:40:25;7.05;;;6.45;;
20185;SDS011;10252;48.792;8.582;2022-07-23T09:45:26;7.00;;;6.20;;
20185;SDS011;10252;48.792;8.582;2022-07-23T09:50:28;7.03;;;6.43;;
20185;SDS011;10252;48.792;8.582;2022-07-23T09:55:32;6.88;;;6.28;;
20185;SDS011;10252;48.792;8.582;2022-07-23T10:00:40;6.93;;;6.30;;
20185;SDS011;10252;48.792;8.582;2022-07-23T10:05:42;7.10;;;6.50;;
20185;SDS011;10252;48.792;8.582;2022-07-23T10:11:06;6.47;;;5.78;;
20185;SDS011;10252;48.792;8.582;2022-07-23T10:16:21;7.80;;;5.90;;
20185;SDS011;10252;48.792;8.582;2022-07-23T10:26:50;7.10;;;6.40;;
20185;SDS011;10252;48.792;8.582;2022-07-23T10:36:55;6.57;;;5.97;;
20185;SDS011;10252;48.792;8.582;2022-07-23T10:42:14;7.22;;;6.35;;
20185;SDS011;10252;48.792;8.582;2022-07-23T10:47:25;7.43;;;6.32;;
20185;SDS011;10252;48.792;8.582;2022-07-23T10:52:41;7.18;;;5.97;;
20185;SDS011;10252;48.792;8.582;2022-07-23T10:57:51;8.98;;;6.40;;
20185;SDS011;10252;48.792;8.582;2022-07-23T11:02:54;6.40;;;5.90;;
20185;SDS011;10252;48.792;8.582;2022-07-23T11:29:23;6.57;;;5.93;;
20185;SDS011;10252;48.792;8.582;2022-07-23T11:34:35;6.00;;;5.45;;
20185;SDS011;10252;48.792;8.582;2022-07-23T11:39:36;7.88;;;6.13;;
20185;SDS011;10252;48.792;8.582;2022-07-23T11:44:38;6.53;;;5.82;;
20185;SDS011;10252;48.792;8.582;2022-07-23T11:49:51;6.50;;;5.90;;
20185;SDS011;10252;48.792;8.582;2022-07-23T11:54:54;6.70;;;6.10;;
20185;SDS011;10252;48.792;8.582;2022-07-23T12:05:12;7.70;;;6.75;;
20185;SDS011;10252;48.792;8.582;2022-07-23T12:10:15;7.28;;;6.68;;
20185;SDS011;10252;48.792;8.582;2022-07-23T12:15:18;7.05;;;6.35;;
20185;SDS011;10252;48.792;8.582;2022-07-23T12:20:27;6.57;;;6.03;;
20185;SDS011;10252;48.792;8.582;2022-07-23T12:25:29;7.28;;;6.22;;
20185;SDS011;10252;48.792;8.582;2022-07-23T12:30:32;6.15;;;5.65;;
20185;SDS011;10252;48.792;8.582;2022-07-23T12:35:35;6.43;;;5.93;;
20185;SDS011;10252;48.792;8.582;2022-07-23T12:40:41;6.63;;;6.03;;
20185;SDS011;10252;48.792;8.582;2022-07-23T12:45:44;6.70;;;6.10;;
20185;SDS011;10252;48.792;8.582;2022-07-23T12:51:08;7.28;;;6.68;;
20185;SDS011;10252;48.792;8.582;2022-07-23T12:56:13;6.88;;;5.50;;
20185;SDS011;10252;48.792;8.582;2022-07-23T13:06:22;8.10;;;6.68;;
20185;SDS011;10252;48.792;8.582;2022-07-23T13:11:23;7.45;;;6.70;;
20185;SDS011;10252;48.792;8.582;2022-07-23T13:16:24;7.13;;;6.50;;
20185;SDS011;10252;48.792;8.582;2022-07-23T13:21:26;6.78;;;6.15;;
20185;SDS011;10252;48.792;8.582;2022-07-23T13:26:27;7.63;;;6.88;;
20185;SDS011;10252;48.792;8.582;2022-07-23T13:31:28;7.45;;;6.75;;
20185;SDS011;10252;48.792;8.582;2022-07-23T13:36:29;10.77;;;6.50;;
20185;SDS011;10252;48.792;8.582;2022-07-23T13:41:31;7.32;;;6.68;;
20185;SDS011;10252;48.792;8.582;2022-07-23T13:46:32;7.03;;;6.43;;
20185;SDS011;10252;48.792;8.582;2022-07-23T13:51:33;8.20;;;7.50;;
20185;SDS011;10252;48.792;8.582;2022-07-23T13:56:34;7.35;;;6.65;;
20185;SDS011;10252;48.792;8.582;2022-07-23T14:01:36;8.30;;;7.60;;
20185;SDS011;10252;48.792;8.582;2022-07-23T14:06:37;8.43;;;6.85;;
20185;SDS011;10252;48.792;8.582;2022-07-23T14:11:38;7.63;;;6.90;;
20185;SDS011;10252;48.792;8.582;2022-07-23T14:16:39;7.95;;;7.25;;
20185;SDS011;10252;48.792;8.582;2022-07-23T14:21:40;7.75;;;7.07;;
20185;SDS011;10252;48.792;8.582;2022-07-23T14:26:41;8.27;;;7.43;;
20185;SDS011;10252;48.792;8.582;2022-07-23T14:31:42;7.78;;;7.07;;
20185;SDS011;10252;48.792;8.582;2022-07-23T14:36:43;8.07;;;7.28;;
20185;SDS011;10252;48.792;8.582;2022-07-23T14:41:46;7.72;;;6.97;;
20185;SDS011;10252;48.792;8.582;2022-07-23T14:46:47;7.57;;;6.80;;
20185;SDS011;10252;48.792;8.582;2022-07-23T14:51:48;7.43;;;6.55;;
20185;SDS011;10252;48.792;8.582;2022-07-23T14:56:49;7.32;;;6.63;;
20185;SDS011;10252;48.792;8.582;2022-07-23T15:01:50;8.00;;;7.18;;
20185;SDS011;10252;48.792;8.582;2022-07-23T15:06:51;7.50;;;6.80;;
20185;SDS011;10252;48.792;8.582;2022-07-23T15:11:53;8.05;;;7.10;;
20185;SDS011;10252;48.792;8.582;2022-07-23T15:16:54;7.78;;;7.18;;
20185;SDS011;10252;48.792;8.582;2022-07-23T15:21:55;7.82;;;6.97;;
20185;SDS011;10252;48.792;8.582;2022-07-23T15:26:56;7.68;;;7.07;;
20185;SDS011;10252;48.792;8.582;2022-07-23T15:31:57;7.82;;;7.03;;
20185;SDS011;10252;48.792;8.582;2022-07-23T15:36:59;7.90;;;7.10;;
20185;SDS011;10252;48.792;8.582;2022-07-23T15:42:01;6.80;;;6.28;;
20185;SDS011;10252;48.792;8.582;2022-07-23T15:47:03;7.65;;;6.90;;
20185;SDS011;10252;48.792;8.582;2022-07-23T15:52:04;8.45;;;7.05;;
20185;SDS011;10252;48.792;8.582;2022-07-23T15:57:05;7.97;;;7.22;;
20185;SDS011;10252;48.792;8.582;2022-07-23T16:02:06;7.50;;;6.72;;
20185;SDS011;10252;48.792;8.582;2022-07-23T16:07:07;8.50;;;7.65;;
20185;SDS011;10252;48.792;8.582;2022-07-23T16:12:08;10.25;;;7.78;;
20185;SDS011;10252;48.792;8.582;2022-07-23T16:17:10;7.95;;;7.25;;
20185;SDS011;10252;48.792;8.582;2022-07-23T16:22:11;7.82;;;7.10;;
20185;SDS011;10252;48.792;8.582;2022-07-23T16:27:15;7.88;;;7.07;;
20185;SDS011;10252;48.792;8.582;2022-07-23T16:32:16;8.30;;;7.32;;
20185;SDS011;10252;48.792;8.582;2022-07-23T16:37:18;18.67;;;8.13;;
20185;SDS011;10252;48.792;8.582;2022-07-23T16:42:19;8.48;;;7.78;;
20185;SDS011;10252;48.792;8.582;2022-07-23T16:47:20;8.23;;;7.43;;
20185;SDS011;10252;48.792;8.582;2022-07-23T16:52:21;9.60;;;7.63;;
20185;SDS011;10252;48.792;8.582;2022-07-23T16:57:22;8.45;;;7.75;;
20185;SDS011;10252;48.792;8.582;2022-07-23T17:02:23;8.75;;;7.75;;
20185;SDS011;10252;48.792;8.582;2022-07-23T17:07:25;8.32;;;7.65;;
20185;SDS011;10252;48.792;8.582;2022-07-23T17:12:26;8.05;;;7.35;;
20185;SDS011;10252;48.792;8.582;2022-07-23T17:17:27;8.13;;;7.28;;
20185;SDS011;10252;48.792;8.582;2022-07-23T17:22:28;10.20;;;8.35;;
20185;SDS011;10252;48.792;8.582;2022-07-23T17:27:29;8.55;;;7.70;;
20185;SDS011;10252;48.792;8.582;2022-07-23T17:32:30;9.68;;;8.25;;
20185;SDS011;10252;48.792;8.582;2022-07-23T17:37:32;8.30;;;7.38;;
20185;SDS011;10252;48.792;8.582;2022-07-23T17:42:33;7.80;;;7.10;;
20185;SDS011;10252;48.792;8.582;2022-07-23T17:47:34;7.75;;;7.03;;
20185;SDS011;10252;48.792;8.582;2022-07-23T17:52:54;7.65;;;6.95;;
20185;SDS011;10252;48.792;8.582;2022-07-23T17:57:55;7.95;;;7.22;;
20185;SDS011;10252;48.792;8.582;2022-07-23T18:02:58;9.38;;;7.57;;
20185;SDS011;10252;48.792;8.582;2022-07-23T18:08:00;7.55;;;6.93;;
20185;SDS011;10252;48.792;8.582;2022-07-23T18:13:05;8.25;;;7.45;;
20185;SDS011;10252;48.792;8.582;2022-07-23T18:18:06;9.68;;;8.70;;
20185;SDS011;10252;48.792;8.582;2022-07-23T18:23:08;8.05;;;7.25;;
20185;SDS011;10252;48.792;8.582;2022-07-23T18:28:09;8.73;;;7.10;;
20185;SDS011;10252;48.792;8.582;2022-07-23T18:33:11;7.63;;;6.95;;
20185;SDS011;10252;48.792;8.582;2022-07-23T18:38:12;7.50;;;6.55;;
20185;SDS011;10252;48.792;8.582;2022-07-23T18:43:14;8.50;;;6.85;;
20185;SDS011;10252;48.792;8.582;2022-07-23T18:48:15;7.90;;;7.20;;
20185;SDS011;10252;48.792;8.582;2022-07-23T18:53:16;8.05;;;7.30;;
20185;SDS011;10252;48.792;8.582;2022-07-23T18:58:17;8.00;;;7.30;;
20185;SDS011;10252;48.792;8.582;2022-07-23T19:03:19;7.38;;;6.78;;
20185;SDS011;10252;48.792;8.582;2022-07-23T19:08:20;9.82;;;7.35;;
20185;SDS011;10252;48.792;8.582;2022-07-23T19:13:21;8.27;;;7.47;;
20185;SDS011;10252;48.792;8.582;2022-07-23T19:18:22;7.45;;;6.68;;
20185;SDS011;10252;48.792;8.582;2022-07-23T19:23:23;7.97;;;7.18;;
20185;SDS011;10252;48.792;8.582;2022-07-23T19:28:25;8.00;;;7.10;;
20185;SDS011;10252;48.792;8.582;2022-07-23T19:33:26;6.97;;;6.38;;
20185;SDS011;10252;48.792;8.582;2022-07-23T19:38:27;9.35;;;6.97;;
20185;SDS011;10252;48.792;8.582;2022-07-23T19:43:28;8.70;;;7.93;;
20185;SDS011;10252;48.792;8.582;2022-07-23T19:48:29;7.70;;;6.97;;
20185;SDS011;10252;48.792;8.582;2022-07-23T19:53:30;8.43;;;7.63;;
20185;SDS011;10252;48.792;8.582;2022-07-23T19:58:32;7.82;;;7.03;;
20185;SDS011;10252;48.792;8.582;2022-07-23T20:03:33;7.63;;;6.90;;
20185;SDS011;10252;48.792;8.582;2022-07-23T20:08:34;8.52;;;7.68;;
20185;SDS011;10252;48.792;8.582;2022-07-23T20:13:35;9.32;;;8.43;;
20185;SDS011;10252;48.792;8.582;2022-07-23T20:18:39;9.68;;;8.35;;
20185;SDS011;10252;48.792;8.582;2022-07-23T20:23:40;9.30;;;8.50;;
20185;SDS011;10252;48.792;8.582;2022-07-23T20:28:41;8.48;;;7.60;;
20185;SDS011;10252;48.792;8.582;2022-07-23T20:33:42;9.90;;;8.80;;
20185;SDS011;10252;48.792;8.582;2022-07-23T20:38:43;9.70;;;8.75;;
20185;SDS011;10252;48.792;8.582;2022-07-23T20:43:44;11.32;;;10.10;;
20185;SDS011;10252;48.792;8.582;2022-07-23T20:48:45;10.02;;;9.10;;
20185;SDS011;10252;48.792;8.582;2022-07-23T20:53:47;10.57;;;8.75;;
20185;SDS011;10252;48.792;8.582;2022-07-23T20:58:48;10.45;;;9.40;;
20185;SDS011;10252;48.792;8.582;2022-07-23T21:03:50;9.75;;;8.77;;
20185;SDS011;10252;48.792;8.582;2022-07-23T21:08:52;9.73;;;8.82;;
20185;SDS011;10252;48.792;8.582;2022-07-23T21:13:53;10.68;;;9.57;;
20185;SDS011;10252;48.792;8.582;2022-07-23T21:18:54;11.77;;;10.65;;
20185;SDS011;10252;48.792;8.582;2022-07-23T21:23:55;10.63;;;9.57;;
20185;SDS011;10252;48.792;8.582;2022-07-23T21:28:56;11.57;;;9.07;;
20185;SDS011;10252;48.792;8.582;2022-07-23T21:33:57;10.68;;;9.57;;
20185;SDS011;10252;48.792;8.582;2022-07-23T21:38:59;9.75;;;8.82;;
20185;SDS011;10252;48.792;8.582;2022-07-23T21:44:00;10.93;;;8.73;;
20185;SDS011;10252;48.792;8.582;2022-07-23T21:49:01;10.30;;;9.00;;
20185;SDS011;10252;48.792;8.582;2022-07-23T21:54:02;10.25;;;9.23;;
20185;SDS011;10252;48.792;8.582;2022-07-23T21:59:03;10.77;;;8.98;;
20185;SDS011;10252;48.792;8.582;2022-07-23T22:04:04;9.90;;;9.00;;
20185;SDS011;10252;48.792;8.582;2022-07-23T22:09:06;16.67;;;11.70;;
20185;SDS011;10252;48.792;8.582;2022-07-23T22:14:07;11.07;;;10.02;;
20185;SDS011;10252;48.792;8.582;2022-07-23T22:19:08;9.50;;;8.68;;
20185;SDS011;10252;48.792;8.582;2022-07-23T22:24:10;10.88;;;9.88;;
20185;SDS011;10252;48.792;8.582;2022-07-23T22:29:12;11.45;;;10.23;;
20185;SDS011;10252;48.792;8.582;2022-07-23T22:34:13;10.38;;;9.27;;
20185;SDS011;10252;48.792;8.582;2022-07-23T22:39:14;9.80;;;8.75;;
20185;SDS011;10252;48.792;8.582;2022-07-23T22:44:16;9.93;;;8.90;;
20185;SDS011;10252;48.792;8.582;2022-07-23T22:49:17;11.20;;;10.00;;
20185;SDS011;10252;48.792;8.582;2022-07-23T22:54:18;10.70;;;9.15;;
20185;SDS011;10252;48.792;8.582;2022-07-23T22:59:19;10.10;;;8.95;;
20185;SDS011;10252;48.792;8.582;2022-07-23T23:04:20;10.23;;;9.23;;
20185;SDS011;10252;48.792;8.582;2022-07-23T23:09:21;10.68;;;9.43;;
20185;SDS011;10252;48.792;8.582;2022-07-23T23:14:22;12.43;;;9.80;;
20185;SDS011;10252;48.792;8.582;2022-07-23T23:19:24;11.25;;;9.90;;
20185;SDS011;10252;48.792;8.582;2022-07-23T23:24:25;10.55;;;9.55;;
20185;SDS011;10252;48.792;8.582;2022-07-23T23:29:26;11.23;;;9.88;;
20185;SDS011;10252;48.792;8.582;2022-07-23T23:34:27;9.93;;;8.82;;
20185;SDS011;10252;48.792;8.582;2022-07-23T23:39:28;10.65;;;9.25;;
20185;SDS011;10252;48.792;8.582;2022-07-23T23:44:29;10.80;;;9.70;;
20185;SDS011;10252;48.792;8.582;2022-07-23T23:49:30;11.88;;;9.70;;
20185;SDS011;10252;48.792;8.582;2022-07-23T23:54:31;10.80;;;9.70;;
20185;SDS011;10252;48.792;8.582;2022-07-23T23:59:33;10.23;;;9.10;;
